< < Back
Terminal Aerodrome Forecast


Current Version              Previous Versions:   1  2  3  4  5  6  7  8  9  

Terminal Aerodrome Forecast

770
FTUS42 KGSP 241737
TAFGSP
TAF
KGSP 241737Z 2418/2518 22014G23KT P6SM SCT030
     FM242300 22008KT P6SM SCT200
     FM250800 29004KT P6SM FEW050 BKN150
     FM251300 35004KT P6SM OVC120=

Latest METAR

888
SAUS70 KWBC 242300 RRF
MTRGSP
METAR KGSP 242253Z 20006KT 10SM CLR 18/13 A2980 RMK AO2 SLP085
T01830133


USA.gov is the U.S. government's official web portal to all federal, state and local government web resources and services.